sensor_id;sensor_type;location;lat;lon;timestamp;pressure;altitude;pressure_sealevel;temperature;humidity
56928;BME280;60850;52.502;13.426;2022-07-06T00:01:03;101580.78;;;16.95;94.20
56928;BME280;60850;52.502;13.426;2022-07-06T00:03:30;101582.69;;;16.91;94.89
56928;BME280;60850;52.502;13.426;2022-07-06T00:05:57;101580.69;;;16.96;94.76
56928;BME280;60850;52.502;13.426;2022-07-06T00:08:24;101582.69;;;16.91;95.16
56928;BME280;60850;52.502;13.426;2022-07-06T00:10:52;101591.53;;;16.95;95.51
56928;BME280;60850;52.502;13.426;2022-07-06T00:13:19;101589.03;;;16.90;96.33
56928;BME280;60850;52.502;13.426;2022-07-06T00:15:46;101588.06;;;16.91;96.82
56928;BME280;60850;52.502;13.426;2022-07-06T00:18:12;101585.75;;;16.82;97.88
56928;BME280;60850;52.502;13.426;2022-07-06T00:20:39;101592.09;;;16.81;98.10
56928;BME280;60850;52.502;13.426;2022-07-06T00:23:06;101586.94;;;16.75;98.49
56928;BME280;60850;52.502;13.426;2022-07-06T00:25:33;101591.56;;;16.71;99.08
56928;BME280;60850;52.502;13.426;2022-07-06T00:28:02;101590.72;;;16.69;99.17
56928;BME280;60850;52.502;13.426;2022-07-06T00:30:29;101591.56;;;16.71;99.87
56928;BME280;60850;52.502;13.426;2022-07-06T00:32:56;101590.06;;;16.63;100.00
56928;BME280;60850;52.502;13.426;2022-07-06T00:35:23;101583.44;;;16.73;100.00
56928;BME280;60850;52.502;13.426;2022-07-06T00:37:50;101595.22;;;16.69;100.00
56928;BME280;60850;52.502;13.426;2022-07-06T00:40:20;101600.72;;;16.66;100.00
56928;BME280;60850;52.502;13.426;2022-07-06T00:42:48;101593.66;;;16.63;100.00
56928;BME280;60850;52.502;13.426;2022-07-06T00:45:17;101593.81;;;16.59;100.00
56928;BME280;60850;52.502;13.426;2022-07-06T00:47:45;101599.28;;;16.56;100.00
56928;BME280;60850;52.502;13.426;2022-07-06T00:50:14;101589.31;;;16.59;100.00
56928;BME280;60850;52.502;13.426;2022-07-06T00:52:44;101586.91;;;16.52;100.00
56928;BME280;60850;52.502;13.426;2022-07-06T00:55:12;101589.38;;;16.58;100.00
56928;BME280;60850;52.502;13.426;2022-07-06T00:57:40;101591.06;;;16.60;100.00
56928;BME280;60850;52.502;13.426;2022-07-06T01:00:09;101601.19;;;16.54;100.00
56928;BME280;60850;52.502;13.426;2022-07-06T01:02:38;101604.81;;;16.53;100.00
56928;BME280;60850;52.502;13.426;2022-07-06T01:05:06;101600.38;;;16.52;100.00
56928;BME280;60850;52.502;13.426;2022-07-06T01:07:33;101600.47;;;16.48;100.00
56928;BME280;60850;52.502;13.426;2022-07-06T01:10:02;101602.13;;;16.53;100.00
56928;BME280;60850;52.502;13.426;2022-07-06T01:12:30;101599.44;;;16.53;100.00
56928;BME280;60850;52.502;13.426;2022-07-06T01:14:57;101597.66;;;16.52;100.00
56928;BME280;60850;52.502;13.426;2022-07-06T01:17:25;101594.03;;;16.53;100.00
56928;BME280;60850;52.502;13.426;2022-07-06T01:19:53;101590.56;;;16.49;100.00
56928;BME280;60850;52.502;13.426;2022-07-06T01:22:21;101591.56;;;16.46;100.00
56928;BME280;60850;52.502;13.426;2022-07-06T01:24:49;101585.38;;;16.44;100.00
56928;BME280;60850;52.502;13.426;2022-07-06T01:27:15;101587.41;;;16.38;100.00
56928;BME280;60850;52.502;13.426;2022-07-06T01:29:42;101593.81;;;16.35;100.00
56928;BME280;60850;52.502;13.426;2022-07-06T01:32:09;101600.94;;;16.36;100.00
56928;BME280;60850;52.502;13.426;2022-07-06T01:34:36;101609.09;;;16.33;100.00
56928;BME280;60850;52.502;13.426;2022-07-06T01:37:03;101603.50;;;16.39;100.00
56928;BME280;60850;52.502;13.426;2022-07-06T01:39:31;101599.06;;;16.38;100.00
56928;BME280;60850;52.502;13.426;2022-07-06T01:41:58;101589.81;;;16.45;100.00
56928;BME280;60850;52.502;13.426;2022-07-06T01:44:25;101588.81;;;16.48;100.00
56928;BME280;60850;52.502;13.426;2022-07-06T01:46:52;101589.53;;;16.53;100.00
56928;BME280;60850;52.502;13.426;2022-07-06T01:49:18;101591.13;;;16.59;100.00
56928;BME280;60850;52.502;13.426;2022-07-06T01:51:45;101594.53;;;16.64;100.00
56928;BME280;60850;52.502;13.426;2022-07-06T01:54:12;101590.97;;;16.63;100.00
56928;BME280;60850;52.502;13.426;2022-07-06T01:56:40;101590.06;;;16.63;100.00
56928;BME280;60850;52.502;13.426;2022-07-06T01:59:07;101588.28;;;16.63;100.00
56928;BME280;60850;52.502;13.426;2022-07-06T02:01:35;101593.59;;;16.65;100.00
56928;BME280;60850;52.502;13.426;2022-07-06T02:04:01;101597.91;;;16.69;100.00
56928;BME280;60850;52.502;13.426;2022-07-06T02:06:28;101595.88;;;16.75;100.00
56928;BME280;60850;52.502;13.426;2022-07-06T02:08:55;101602.84;;;16.81;100.00
56928;BME280;60850;52.502;13.426;2022-07-06T02:11:23;101604.19;;;16.93;100.00
56928;BME280;60850;52.502;13.426;2022-07-06T02:13:51;101608.34;;;17.01;98.98
56928;BME280;60850;52.502;13.426;2022-07-06T02:16:18;101611.44;;;17.14;96.10
56928;BME280;60850;52.502;13.426;2022-07-06T02:18:44;101617.47;;;17.21;94.61
56928;BME280;60850;52.502;13.426;2022-07-06T02:21:11;101622.78;;;17.22;95.09
56928;BME280;60850;52.502;13.426;2022-07-06T02:23:38;101628.09;;;17.24;96.42
56928;BME280;60850;52.502;13.426;2022-07-06T02:26:05;101626.13;;;17.29;97.99
56928;BME280;60850;52.502;13.426;2022-07-06T02:28:32;101635.13;;;17.28;100.00
56928;BME280;60850;52.502;13.426;2022-07-06T02:31:00;101642.59;;;17.21;100.00
56928;BME280;60850;52.502;13.426;2022-07-06T02:33:27;101634.69;;;17.17;100.00
56928;BME280;60850;52.502;13.426;2022-07-06T02:35:54;101647.56;;;17.09;100.00
56928;BME280;60850;52.502;13.426;2022-07-06T02:38:21;101639.72;;;17.02;100.00
56928;BME280;60850;52.502;13.426;2022-07-06T02:40:48;101638.22;;;16.95;100.00
56928;BME280;60850;52.502;13.426;2022-07-06T02:43:15;101642.16;;;16.87;100.00
56928;BME280;60850;52.502;13.426;2022-07-06T02:45:42;101649.88;;;16.72;100.00
56928;BME280;60850;52.502;13.426;2022-07-06T02:48:10;101646.88;;;16.55;100.00
56928;BME280;60850;52.502;13.426;2022-07-06T02:50:36;101653.81;;;16.37;100.00
56928;BME280;60850;52.502;13.426;2022-07-06T02:53:03;101653.38;;;16.25;100.00
56928;BME280;60850;52.502;13.426;2022-07-06T02:55:30;101649.16;;;16.17;100.00
56928;BME280;60850;52.502;13.426;2022-07-06T02:57:57;101645.72;;;16.12;100.00
56928;BME280;60850;52.502;13.426;2022-07-06T03:00:24;101656.56;;;16.11;100.00
56928;BME280;60850;52.502;13.426;2022-07-06T03:02:51;101657.56;;;16.07;100.00
56928;BME280;60850;52.502;13.426;2022-07-06T03:05:19;101662.06;;;16.08;100.00
56928;BME280;60850;52.502;13.426;2022-07-06T03:07:46;101663.13;;;16.02;100.00
56928;BME280;60850;52.502;13.426;2022-07-06T03:10:13;101667.72;;;15.99;100.00
56928;BME280;60850;52.502;13.426;2022-07-06T03:12:39;101665.16;;;15.96;100.00
56928;BME280;60850;52.502;13.426;2022-07-06T03:15:07;101667.72;;;15.99;100.00
56928;BME280;60850;52.502;13.426;2022-07-06T03:17:36;101669.59;;;15.97;100.00
56928;BME280;60850;52.502;13.426;2022-07-06T03:20:04;101671.34;;;15.98;100.00
56928;BME280;60850;52.502;13.426;2022-07-06T03:22:32;101667.94;;;15.92;100.00
56928;BME280;60850;52.502;13.426;2022-07-06T03:24:59;101665.28;;;15.91;100.00
56928;BME280;60850;52.502;13.426;2022-07-06T03:27:26;101665.25;;;15.92;100.00
56928;BME280;60850;52.502;13.426;2022-07-06T03:29:53;101667.91;;;15.94;100.00
56928;BME280;60850;52.502;13.426;2022-07-06T03:32:19;101672.28;;;15.97;100.00
56928;BME280;60850;52.502;13.426;2022-07-06T03:34:46;101666.03;;;15.96;100.00
56928;BME280;60850;52.502;13.426;2022-07-06T03:37:13;101668.78;;;15.95;100.00
56928;BME280;60850;52.502;13.426;2022-07-06T03:39:41;101665.16;;;15.96;100.00
56928;BME280;60850;52.502;13.426;2022-07-06T03:42:08;101668.78;;;15.95;100.00
56928;BME280;60850;52.502;13.426;2022-07-06T03:44:35;101664.22;;;15.97;100.00
56928;BME280;60850;52.502;13.426;2022-07-06T03:47:02;101670.59;;;15.94;100.00
56928;BME280;60850;52.502;13.426;2022-07-06T03:49:29;101663.47;;;15.93;100.00
56928;BME280;60850;52.502;13.426;2022-07-06T03:51:56;101659.16;;;15.87;100.00
56928;BME280;60850;52.502;13.426;2022-07-06T03:54:22;101656.63;;;15.83;100.00
56928;BME280;60850;52.502;13.426;2022-07-06T03:56:51;101664.53;;;15.87;100.00
56928;BME280;60850;52.502;13.426;2022-07-06T03:59:17;101660.78;;;15.93;100.00
56928;BME280;60850;52.502;13.426;2022-07-06T04:01:44;101663.13;;;16.02;100.00
56928;BME280;60850;52.502;13.426;2022-07-06T04:04:11;101660.63;;;16.23;100.00
56928;BME280;60850;52.502;13.426;2022-07-06T04:06:38;101660.19;;;16.35;100.00
56928;BME280;60850;52.502;13.426;2022-07-06T04:09:05;101663.97;;;16.54;100.00
56928;BME280;60850;52.502;13.426;2022-07-06T04:11:32;101661.53;;;16.73;100.00
56928;BME280;60850;52.502;13.426;2022-07-06T04:14:00;101659.19;;;16.87;100.00
56928;BME280;60850;52.502;13.426;2022-07-06T04:19:02;101666.97;;;16.95;100.00
56928;BME280;60850;52.502;13.426;2022-07-06T04:21:29;101672.13;;;17.01;100.00
56928;BME280;60850;52.502;13.426;2022-07-06T04:23:55;101663.50;;;17.15;100.00
56928;BME280;60850;52.502;13.426;2022-07-06T04:26:22;101668.13;;;17.35;100.00
56928;BME280;60850;52.502;13.426;2022-07-06T04:28:49;101661.31;;;17.48;100.00
56928;BME280;60850;52.502;13.426;2022-07-06T04:31:17;101658.22;;;17.57;100.00
56928;BME280;60850;52.502;13.426;2022-07-06T04:33:44;101661.91;;;17.54;100.00
56928;BME280;60850;52.502;13.426;2022-07-06T04:36:11;101661.41;;;17.45;100.00
56928;BME280;60850;52.502;13.426;2022-07-06T04:38:37;101661.78;;;17.36;100.00
56928;BME280;60850;52.502;13.426;2022-07-06T04:41:04;101656.00;;;17.23;100.00
56928;BME280;60850;52.502;13.426;2022-07-06T04:43:31;101661.56;;;17.18;100.00
56928;BME280;60850;52.502;13.426;2022-07-06T04:45:58;101659.63;;;17.22;100.00
56928;BME280;60850;52.502;13.426;2022-07-06T04:48:27;101654.09;;;17.25;100.00
56928;BME280;60850;52.502;13.426;2022-07-06T04:50:54;101665.47;;;17.33;100.00
56928;BME280;60850;52.502;13.426;2022-07-06T04:53:21;101661.59;;;17.40;100.00
56928;BME280;60850;52.502;13.426;2022-07-06T04:55:47;101657.41;;;17.55;100.00
56928;BME280;60850;52.502;13.426;2022-07-06T04:58:14;101649.63;;;17.69;100.00
56928;BME280;60850;52.502;13.426;2022-07-06T05:00:41;101647.31;;;17.82;100.00
56928;BME280;60850;52.502;13.426;2022-07-06T05:03:08;101656.44;;;18.81;100.00
56928;BME280;60850;52.502;13.426;2022-07-06T05:05:36;101662.34;;;20.36;93.99
56928;BME280;60850;52.502;13.426;2022-07-06T05:08:04;101661.53;;;20.68;87.58
56928;BME280;60850;52.502;13.426;2022-07-06T05:10:30;101666.78;;;21.20;82.32
56928;BME280;60850;52.502;13.426;2022-07-06T05:12:58;101669.81;;;21.79;78.18
56928;BME280;60850;52.502;13.426;2022-07-06T05:15:25;101668.06;;;22.08;73.29
56928;BME280;60850;52.502;13.426;2022-07-06T05:17:51;101674.03;;;21.04;81.08
56928;BME280;60850;52.502;13.426;2022-07-06T05:20:18;101684.50;;;20.44;86.02
56928;BME280;60850;52.502;13.426;2022-07-06T05:22:46;101676.44;;;19.90;87.60
56928;BME280;60850;52.502;13.426;2022-07-06T05:25:13;101676.47;;;19.71;89.42
56928;BME280;60850;52.502;13.426;2022-07-06T05:27:40;101671.41;;;19.45;92.04
56928;BME280;60850;52.502;13.426;2022-07-06T05:30:08;101665.00;;;19.29;93.16
56928;BME280;60850;52.502;13.426;2022-07-06T05:32:35;101664.94;;;19.11;93.63
56928;BME280;60850;52.502;13.426;2022-07-06T05:35:02;101660.19;;;19.16;93.56
56928;BME280;60850;52.502;13.426;2022-07-06T05:37:29;101665.88;;;19.29;91.84
56928;BME280;60850;52.502;13.426;2022-07-06T05:39:57;101666.91;;;19.45;91.45
56928;BME280;60850;52.502;13.426;2022-07-06T05:42:24;101666.13;;;20.83;86.02
56928;BME280;60850;52.502;13.426;2022-07-06T05:44:54;101652.06;;;23.62;65.80
56928;BME280;60850;52.502;13.426;2022-07-06T05:47:21;101658.91;;;27.12;48.96
56928;BME280;60850;52.502;13.426;2022-07-06T05:50:06;101659.06;;;29.62;39.28
56928;BME280;60850;52.502;13.426;2022-07-06T05:52:40;101659.63;;;31.64;33.99
56928;BME280;60850;52.502;13.426;2022-07-06T05:55:08;101661.94;;;33.52;30.85
56928;BME280;60850;52.502;13.426;2022-07-06T05:57:35;101663.28;;;34.64;27.64
56928;BME280;60850;52.502;13.426;2022-07-06T06:00:03;101660.22;;;35.85;26.34
56928;BME280;60850;52.502;13.426;2022-07-06T06:02:37;101665.81;;;36.83;24.67
56928;BME280;60850;52.502;13.426;2022-07-06T06:05:05;101663.97;;;37.79;23.07
56928;BME280;60850;52.502;13.426;2022-07-06T06:07:33;101662.78;;;38.80;22.79
56928;BME280;60850;52.502;13.426;2022-07-06T06:10:03;101672.22;;;39.55;20.92
56928;BME280;60850;52.502;13.426;2022-07-06T06:12:32;101664.66;;;40.23;20.43
56928;BME280;60850;52.502;13.426;2022-07-06T06:14:59;101677.19;;;40.47;19.80
56928;BME280;60850;52.502;13.426;2022-07-06T06:17:26;101667.66;;;40.95;19.45
56928;BME280;60850;52.502;13.426;2022-07-06T06:19:53;101679.22;;;41.31;18.85
56928;BME280;60850;52.502;13.426;2022-07-06T06:22:20;101671.13;;;41.55;18.26
56928;BME280;60850;52.502;13.426;2022-07-06T06:24:47;101674.94;;;42.05;17.72
56928;BME280;60850;52.502;13.426;2022-07-06T06:27:14;101681.97;;;39.79;19.53
56928;BME280;60850;52.502;13.426;2022-07-06T06:29:43;101677.78;;;40.43;19.20
56928;BME280;60850;52.502;13.426;2022-07-06T06:32:10;101678.56;;;41.16;18.30
56928;BME280;60850;52.502;13.426;2022-07-06T06:34:37;101674.09;;;42.05;17.70
56928;BME280;60850;52.502;13.426;2022-07-06T06:37:04;101675.75;;;42.44;17.29
56928;BME280;60850;52.502;13.426;2022-07-06T06:39:32;101667.72;;;42.97;16.97
56928;BME280;60850;52.502;13.426;2022-07-06T06:41:59;101669.47;;;43.65;16.65
56928;BME280;60850;52.502;13.426;2022-07-06T06:44:26;101669.16;;;43.55;15.83
56928;BME280;60850;52.502;13.426;2022-07-06T06:46:54;101668.72;;;44.18;15.34
56928;BME280;60850;52.502;13.426;2022-07-06T06:49:21;101677.84;;;44.79;15.26
56928;BME280;60850;52.502;13.426;2022-07-06T06:51:47;101673.53;;;45.35;14.56
56928;BME280;60850;52.502;13.426;2022-07-06T06:54:14;101681.28;;;44.69;14.86
56928;BME280;60850;52.502;13.426;2022-07-06T06:56:41;101664.25;;;41.95;16.70
56928;BME280;60850;52.502;13.426;2022-07-06T06:59:08;101672.28;;;39.20;19.14
56928;BME280;60850;52.502;13.426;2022-07-06T07:01:34;101672.56;;;36.28;21.90
56928;BME280;60850;52.502;13.426;2022-07-06T07:04:03;101673.47;;;34.39;23.98
56928;BME280;60850;52.502;13.426;2022-07-06T07:06:29;101676.34;;;33.64;24.97
56928;BME280;60850;52.502;13.426;2022-07-06T07:08:56;101670.75;;;37.40;20.91
56928;BME280;60850;52.502;13.426;2022-07-06T07:11:23;101671.09;;;40.17;18.89
56928;BME280;60850;52.502;13.426;2022-07-06T07:13:50;101683.97;;;41.11;17.98
56928;BME280;60850;52.502;13.426;2022-07-06T07:16:17;101671.53;;;40.80;17.85
56928;BME280;60850;52.502;13.426;2022-07-06T07:18:43;101672.81;;;40.84;17.21
56928;BME280;60850;52.502;13.426;2022-07-06T07:21:11;101674.44;;;36.73;21.16
56928;BME280;60850;52.502;13.426;2022-07-06T07:23:38;101673.97;;;38.16;19.93
56928;BME280;60850;52.502;13.426;2022-07-06T07:26:05;101677.88;;;39.68;18.52
56928;BME280;60850;52.502;13.426;2022-07-06T07:28:32;101680.19;;;37.60;20.32
56928;BME280;60850;52.502;13.426;2022-07-06T07:30:59;101672.09;;;34.02;23.84
56928;BME280;60850;52.502;13.426;2022-07-06T07:33:25;101670.66;;;31.47;27.17
56928;BME280;60850;52.502;13.426;2022-07-06T07:35:52;101670.38;;;29.88;28.80
56928;BME280;60850;52.502;13.426;2022-07-06T07:38:20;101679.84;;;28.84;31.41
56928;BME280;60850;52.502;13.426;2022-07-06T07:40:47;101676.28;;;31.17;28.01
56928;BME280;60850;52.502;13.426;2022-07-06T07:43:14;101670.22;;;34.19;24.16
56928;BME280;60850;52.502;13.426;2022-07-06T07:45:41;101675.97;;;36.61;21.11
56928;BME280;60850;52.502;13.426;2022-07-06T07:48:07;101666.28;;;37.97;19.20
56928;BME280;60850;52.502;13.426;2022-07-06T07:50:34;101676.63;;;38.24;18.69
56928;BME280;60850;52.502;13.426;2022-07-06T07:53:01;101683.75;;;39.45;18.14
56928;BME280;60850;52.502;13.426;2022-07-06T07:55:29;101675.72;;;37.30;19.39
56928;BME280;60850;52.502;13.426;2022-07-06T07:57:56;101681.31;;;34.68;21.71
56928;BME280;60850;52.502;13.426;2022-07-06T08:00:23;101692.66;;;33.07;23.06
56928;BME280;60850;52.502;13.426;2022-07-06T08:02:51;101686.25;;;32.19;24.07
56928;BME280;60850;52.502;13.426;2022-07-06T08:05:17;101682.75;;;35.19;21.46
56928;BME280;60850;52.502;13.426;2022-07-06T08:07:44;101685.22;;;35.54;20.97
56928;BME280;60850;52.502;13.426;2022-07-06T08:10:11;101685.50;;;32.96;23.54
56928;BME280;60850;52.502;13.426;2022-07-06T08:12:39;101684.78;;;31.34;25.56
56928;BME280;60850;52.502;13.426;2022-07-06T08:15:07;101687.94;;;31.94;24.32
56928;BME280;60850;52.502;13.426;2022-07-06T08:17:34;101680.38;;;31.68;24.80
56928;BME280;60850;52.502;13.426;2022-07-06T08:20:01;101673.56;;;29.93;27.21
56928;BME280;60850;52.502;13.426;2022-07-06T08:22:28;101678.66;;;30.46;27.07
56928;BME280;60850;52.502;13.426;2022-07-06T08:24:55;101685.97;;;31.77;25.21
56928;BME280;60850;52.502;13.426;2022-07-06T08:27:23;101681.63;;;29.66;27.94
56928;BME280;60850;52.502;13.426;2022-07-06T08:29:51;101683.81;;;28.17;30.13
56928;BME280;60850;52.502;13.426;2022-07-06T08:32:18;101685.75;;;26.73;32.14
56928;BME280;60850;52.502;13.426;2022-07-06T08:34:46;101676.94;;;25.13;34.57
56928;BME280;60850;52.502;13.426;2022-07-06T08:37:13;101685.56;;;25.07;35.89
56928;BME280;60850;52.502;13.426;2022-07-06T08:39:40;101680.34;;;25.90;34.12
56928;BME280;60850;52.502;13.426;2022-07-06T08:42:07;101686.84;;;25.76;34.74
56928;BME280;60850;52.502;13.426;2022-07-06T08:44:36;101682.88;;;26.04;34.31
56928;BME280;60850;52.502;13.426;2022-07-06T08:47:06;101680.84;;;25.22;35.55
56928;BME280;60850;52.502;13.426;2022-07-06T08:49:34;101683.59;;;24.71;36.43
56928;BME280;60850;52.502;13.426;2022-07-06T08:52:03;101683.69;;;24.94;35.78
56928;BME280;60850;52.502;13.426;2022-07-06T08:54:30;101679.41;;;26.72;32.61
56928;BME280;60850;52.502;13.426;2022-07-06T08:56:57;101679.03;;;25.09;33.24
56928;BME280;60850;52.502;13.426;2022-07-06T08:59:25;101671.47;;;23.70;35.25
56928;BME280;60850;52.502;13.426;2022-07-06T09:01:53;101682.72;;;22.94;35.98
56928;BME280;60850;52.502;13.426;2022-07-06T09:04:22;101688.66;;;23.15;35.95
56928;BME280;60850;52.502;13.426;2022-07-06T09:06:50;101690.97;;;23.35;36.86
56928;BME280;60850;52.502;13.426;2022-07-06T09:09:19;101684.25;;;23.41;36.86
56928;BME280;60850;52.502;13.426;2022-07-06T09:11:47;101699.72;;;23.40;36.82
56928;BME280;60850;52.502;13.426;2022-07-06T09:14:14;101697.97;;;23.11;37.90
56928;BME280;60850;52.502;13.426;2022-07-06T09:16:42;101697.69;;;22.87;37.21
56928;BME280;60850;52.502;13.426;2022-07-06T09:19:11;101690.75;;;22.67;37.62
56928;BME280;60850;52.502;13.426;2022-07-06T09:21:40;101689.22;;;22.77;37.24
56928;BME280;60850;52.502;13.426;2022-07-06T09:24:10;101687.75;;;23.84;35.85
56928;BME280;60850;52.502;13.426;2022-07-06T09:26:36;101682.63;;;26.31;31.01
56928;BME280;60850;52.502;13.426;2022-07-06T09:29:04;101684.06;;;25.52;31.92
56928;BME280;60850;52.502;13.426;2022-07-06T09:31:31;101688.66;;;27.16;29.63
56928;BME280;60850;52.502;13.426;2022-07-06T09:34:00;101683.34;;;25.98;29.99
56928;BME280;60850;52.502;13.426;2022-07-06T09:36:48;101690.56;;;25.00;30.03
56928;BME280;60850;52.502;13.426;2022-07-06T09:39:20;101685.03;;;24.11;31.97
56928;BME280;60850;52.502;13.426;2022-07-06T09:41:48;101690.16;;;23.47;32.76
56928;BME280;60850;52.502;13.426;2022-07-06T09:44:21;101689.81;;;22.96;34.61
56928;BME280;60850;52.502;13.426;2022-07-06T09:46:49;101689.38;;;22.60;35.76
56928;BME280;60850;52.502;13.426;2022-07-06T09:49:17;101689.22;;;22.33;37.26
56928;BME280;60850;52.502;13.426;2022-07-06T09:51:44;101684.19;;;22.11;37.56
56928;BME280;60850;52.502;13.426;2022-07-06T09:54:14;101685.19;;;21.94;37.61
56928;BME280;60850;52.502;13.426;2022-07-06T09:56:46;101692.88;;;22.02;38.11
56928;BME280;60850;52.502;13.426;2022-07-06T09:59:17;101693.25;;;22.41;37.81
56928;BME280;60850;52.502;13.426;2022-07-06T10:01:45;101693.50;;;22.95;36.14
56928;BME280;60850;52.502;13.426;2022-07-06T10:04:13;101698.06;;;23.09;36.01
56928;BME280;60850;52.502;13.426;2022-07-06T10:06:41;101694.75;;;22.90;36.75
56928;BME280;60850;52.502;13.426;2022-07-06T10:09:09;101697.94;;;22.82;37.58
56928;BME280;60850;52.502;13.426;2022-07-06T10:11:40;101699.88;;;22.66;37.67
56928;BME280;60850;52.502;13.426;2022-07-06T10:14:07;101691.50;;;22.55;36.95
56928;BME280;60850;52.502;13.426;2022-07-06T10:16:36;101697.31;;;22.48;38.40
56928;BME280;60850;52.502;13.426;2022-07-06T10:19:05;101703.63;;;22.49;38.73
56928;BME280;60850;52.502;13.426;2022-07-06T10:21:33;101691.31;;;22.58;38.23
56928;BME280;60850;52.502;13.426;2022-07-06T10:24:03;101702.19;;;22.58;39.94
56928;BME280;60850;52.502;13.426;2022-07-06T10:26:30;101709.00;;;22.79;39.06
56928;BME280;60850;52.502;13.426;2022-07-06T10:29:02;101697.91;;;22.98;39.17
56928;BME280;60850;52.502;13.426;2022-07-06T10:31:34;101702.34;;;23.13;39.40
56928;BME280;60850;52.502;13.426;2022-07-06T10:34:04;101706.94;;;23.13;39.70
56928;BME280;60850;52.502;13.426;2022-07-06T10:36:37;101694.31;;;23.12;39.95
56928;BME280;60850;52.502;13.426;2022-07-06T10:39:04;101696.31;;;23.22;40.00
56928;BME280;60850;52.502;13.426;2022-07-06T10:41:51;101693.41;;;23.11;39.53
56928;BME280;60850;52.502;13.426;2022-07-06T10:44:21;101703.91;;;23.03;39.76
56928;BME280;60850;52.502;13.426;2022-07-06T10:46:52;101703.13;;;22.87;40.60
56928;BME280;60850;52.502;13.426;2022-07-06T10:49:20;101693.84;;;22.75;38.62
56928;BME280;60850;52.502;13.426;2022-07-06T10:51:47;101691.75;;;23.09;38.57
56928;BME280;60850;52.502;13.426;2022-07-06T10:54:17;101689.31;;;23.47;38.63
56928;BME280;60850;52.502;13.426;2022-07-06T10:56:45;101688.34;;;23.75;38.63
56928;BME280;60850;52.502;13.426;2022-07-06T10:59:14;101683.81;;;23.75;37.77
56928;BME280;60850;52.502;13.426;2022-07-06T11:02:13;101684.47;;;23.79;37.33
56928;BME280;60850;52.502;13.426;2022-07-06T11:04:41;101686.59;;;23.74;37.74
56928;BME280;60850;52.502;13.426;2022-07-06T11:07:09;101686.56;;;23.61;38.04
56928;BME280;60850;52.502;13.426;2022-07-06T11:09:37;101696.56;;;23.61;38.25
56928;BME280;60850;52.502;13.426;2022-07-06T11:12:12;101691.00;;;23.76;38.20
56928;BME280;60850;52.502;13.426;2022-07-06T11:14:41;101684.00;;;23.72;37.67
56928;BME280;60850;52.502;13.426;2022-07-06T11:17:10;101681.44;;;23.42;37.66
56928;BME280;60850;52.502;13.426;2022-07-06T11:19:48;101679.50;;;23.30;37.40
56928;BME280;60850;52.502;13.426;2022-07-06T11:22:16;101682.94;;;23.05;38.72
56928;BME280;60850;52.502;13.426;2022-07-06T11:24:44;101683.94;;;22.74;39.10
56928;BME280;60850;52.502;13.426;2022-07-06T11:27:11;101674.75;;;22.32;39.76
56928;BME280;60850;52.502;13.426;2022-07-06T11:29:39;101684.16;;;21.81;41.03
56928;BME280;60850;52.502;13.426;2022-07-06T11:32:08;101688.78;;;21.63;42.27
56928;BME280;60850;52.502;13.426;2022-07-06T11:34:39;101678.56;;;21.68;42.93
56928;BME280;60850;52.502;13.426;2022-07-06T11:37:09;101688.44;;;21.85;42.70
56928;BME280;60850;52.502;13.426;2022-07-06T11:39:37;101687.34;;;22.03;41.74
56928;BME280;60850;52.502;13.426;2022-07-06T11:42:07;101676.22;;;22.38;40.27
56928;BME280;60850;52.502;13.426;2022-07-06T11:44:34;101679.69;;;22.56;39.23
56928;BME280;60850;52.502;13.426;2022-07-06T11:47:02;101683.56;;;22.80;38.39
56928;BME280;60850;52.502;13.426;2022-07-06T11:49:29;101679.16;;;22.93;38.26
56928;BME280;60850;52.502;13.426;2022-07-06T11:51:58;101686.59;;;22.90;37.71
56928;BME280;60850;52.502;13.426;2022-07-06T11:54:26;101685.13;;;22.84;38.08
56928;BME280;60850;52.502;13.426;2022-07-06T11:56:54;101690.41;;;23.01;38.55
56928;BME280;60850;52.502;13.426;2022-07-06T11:59:25;101679.63;;;23.14;37.56
56928;BME280;60850;52.502;13.426;2022-07-06T12:01:58;101678.50;;;23.31;36.87
56928;BME280;60850;52.502;13.426;2022-07-06T12:04:26;101671.25;;;23.58;37.33
56928;BME280;60850;52.502;13.426;2022-07-06T12:06:53;101660.22;;;23.47;37.48
56928;BME280;60850;52.502;13.426;2022-07-06T12:09:21;101661.44;;;23.15;38.80
56928;BME280;60850;52.502;13.426;2022-07-06T12:11:48;101662.53;;;22.98;38.17
56928;BME280;60850;52.502;13.426;2022-07-06T12:14:16;101668.53;;;23.03;38.14
56928;BME280;60850;52.502;13.426;2022-07-06T12:16:45;101656.19;;;23.26;38.57
56928;BME280;60850;52.502;13.426;2022-07-06T12:19:12;101663.34;;;23.41;38.80
56928;BME280;60850;52.502;13.426;2022-07-06T12:21:43;101656.47;;;23.36;38.71
56928;BME280;60850;52.502;13.426;2022-07-06T12:24:16;101677.06;;;23.11;38.88
56928;BME280;60850;52.502;13.426;2022-07-06T12:26:45;101658.34;;;22.78;38.93
56928;BME280;60850;52.502;13.426;2022-07-06T12:29:13;101656.38;;;22.66;39.25
56928;BME280;60850;52.502;13.426;2022-07-06T12:31:41;101661.31;;;22.45;40.09
56928;BME280;60850;52.502;13.426;2022-07-06T12:34:13;101671.28;;;22.44;40.78
56928;BME280;60850;52.502;13.426;2022-07-06T12:36:45;101671.13;;;22.62;40.92
56928;BME280;60850;52.502;13.426;2022-07-06T12:39:13;101670.75;;;22.82;40.37
56928;BME280;60850;52.502;13.426;2022-07-06T12:41:46;101660.22;;;22.92;40.07